Time;durP1;ratioP1;P1;durP2;ratioP2;P2;SDS_P1;SDS_P2;PMS_P1;PMS_P2;Temp;Humidity;BMP_temperature;BMP_pressure;BME280_temperature;BME280_humidity;BME280_pressure;Samples;Min_cycle;Max_cycle;Signal;HPM_P1;HPM_P2
2021/04/28 00:02:08;;;;;;;9.77;4.60;;;8.10;99.90;;;;;;5083310;28;20457;-83
2021/04/28 00:04:34;;;;;;;9.93;4.43;;;8.10;99.90;;;;;;5083582;28;20459;-83
2021/04/28 00:07:03;;;;;;;10.00;4.67;;;8.00;99.90;;;;;;5087178;28;20473;-83
2021/04/28 00:09:30;;;;;;;9.10;4.83;;;8.00;99.90;;;;;;5088344;28;20549;-83
2021/04/28 00:11:57;;;;;;;10.63;4.80;;;8.10;99.90;;;;;;5087806;28;20515;-83
2021/04/28 00:14:24;;;;;;;9.87;5.13;;;8.10;99.90;;;;;;5092212;28;20518;-83
2021/04/28 00:16:50;;;;;;;9.73;4.90;;;8.10;99.90;;;;;;5093569;28;20470;-83
2021/04/28 00:19:17;;;;;;;10.00;4.80;;;8.10;99.90;;;;;;5092886;28;20534;-84
2021/04/28 00:21:43;;;;;;;11.63;5.43;;;8.10;99.90;;;;;;5091380;28;20455;-83
2021/04/28 00:24:11;;;;;;;10.87;4.60;;;8.00;99.90;;;;;;5090379;28;20498;-84
2021/04/28 00:26:38;;;;;;;10.23;5.20;;;8.10;99.90;;;;;;5087340;28;20470;-83
2021/04/28 00:29:05;;;;;;;11.87;4.90;;;8.10;99.90;;;;;;5089308;28;20481;-83
2021/04/28 00:31:32;;;;;;;9.50;5.30;;;8.00;99.90;;;;;;5089305;28;21197;-83
2021/04/28 00:33:58;;;;;;;9.87;5.47;;;8.00;99.90;;;;;;5089667;28;20520;-83
2021/04/28 00:36:25;;;;;;;12.33;6.70;;;8.00;99.90;;;;;;5089747;28;20435;-83
2021/04/28 00:38:51;;;;;;;11.33;5.00;;;8.00;99.90;;;;;;5089071;28;20538;-83
2021/04/28 00:41:18;;;;;;;16.13;5.40;;;7.90;99.90;;;;;;5093003;28;20530;-83
2021/04/28 00:43:46;;;;;;;10.10;4.70;;;7.90;99.90;;;;;;5093887;28;20526;-82
2021/04/28 00:46:13;;;;;;;13.03;5.90;;;7.80;99.90;;;;;;5093805;28;20447;-83
2021/04/28 00:48:40;;;;;;;12.47;6.20;;;7.70;99.90;;;;;;5093022;28;20546;-82
2021/04/28 00:51:07;;;;;;;9.40;5.40;;;7.80;99.90;;;;;;5094185;28;20451;-83
2021/04/28 00:53:34;;;;;;;11.93;5.90;;;7.70;99.90;;;;;;5083071;28;20451;-82
2021/04/28 00:56:02;;;;;;;11.50;6.30;;;7.60;99.90;;;;;;5074808;28;20462;-81
2021/04/28 00:58:29;;;;;;;10.57;5.40;;;7.50;99.90;;;;;;5074928;28;20463;-82
2021/04/28 01:00:57;;;;;;;11.43;5.80;;;7.50;99.90;;;;;;5079485;28;20857;-82
2021/04/28 01:03:26;;;;;;;11.43;6.53;;;7.50;99.90;;;;;;5079852;28;20465;-81
2021/04/28 01:05:54;;;;;;;8.97;5.60;;;7.50;99.90;;;;;;5079954;28;20456;-82
2021/04/28 01:08:21;;;;;;;17.33;6.47;;;7.40;99.90;;;;;;5080757;28;20573;-82
2021/04/28 01:10:50;;;;;;;10.07;6.20;;;7.30;99.90;;;;;;5080964;28;20446;-82
2021/04/28 01:13:17;;;;;;;14.03;6.30;;;7.30;99.90;;;;;;5079257;28;20450;-83
2021/04/28 01:15:44;;;;;;;10.63;6.10;;;7.20;99.90;;;;;;5078774;28;20559;-82
2021/04/28 01:18:11;;;;;;;10.23;5.90;;;7.20;99.90;;;;;;5078262;28;20982;-81
2021/04/28 01:20:39;;;;;;;10.93;6.00;;;7.10;99.90;;;;;;5079536;28;20532;-82
2021/04/28 01:23:08;;;;;;;11.73;5.37;;;7.10;99.90;;;;;;5079893;28;20459;-83
2021/04/28 01:25:35;;;;;;;10.00;5.60;;;7.10;99.90;;;;;;5080019;28;20455;-82
2021/04/28 01:28:04;;;;;;;10.00;6.17;;;7.10;99.90;;;;;;5077842;28;20502;-82
2021/04/28 01:30:35;;;;;;;19.00;6.60;;;7.00;99.90;;;;;;5076587;28;20450;-83
2021/04/28 01:33:02;;;;;;;10.77;5.87;;;6.90;99.90;;;;;;5081031;28;20950;-82
2021/04/28 01:35:30;;;;;;;11.07;6.07;;;6.90;99.90;;;;;;5080900;28;20461;-82
2021/04/28 01:37:57;;;;;;;10.43;6.30;;;6.80;99.90;;;;;;5081543;28;21078;-83
2021/04/28 01:40:26;;;;;;;10.80;6.27;;;6.80;99.90;;;;;;5081280;28;20453;-81
2021/04/28 01:42:54;;;;;;;10.90;6.40;;;6.80;99.90;;;;;;5081776;28;20797;-83
2021/04/28 01:45:21;;;;;;;11.40;6.10;;;6.70;99.90;;;;;;5081629;28;20827;-83
2021/04/28 01:47:48;;;;;;;9.97;6.77;;;6.60;99.90;;;;;;5073723;28;20986;-82
2021/04/28 01:50:18;;;;;;;12.30;7.27;;;6.60;99.90;;;;;;5079147;28;20429;-83
2021/04/28 01:52:45;;;;;;;10.33;6.30;;;6.50;99.90;;;;;;5079046;28;20438;-83
2021/04/28 01:55:13;;;;;;;12.80;7.17;;;6.50;99.90;;;;;;5079026;28;20455;-82
2021/04/28 01:57:42;;;;;;;9.93;6.27;;;6.50;99.90;;;;;;5079227;28;20474;-82
2021/04/28 02:00:11;;;;;;;10.53;6.53;;;6.40;99.90;;;;;;5073825;28;20455;-82
2021/04/28 02:02:39;;;;;;;12.17;7.20;;;6.30;99.90;;;;;;5079689;28;20455;-83
2021/04/28 02:05:07;;;;;;;9.00;6.00;;;6.30;99.90;;;;;;5079132;28;20492;-82
2021/04/28 02:07:34;;;;;;;14.00;7.07;;;6.30;99.90;;;;;;5078858;28;20479;-82
2021/04/28 02:10:01;;;;;;;13.23;6.70;;;6.20;99.90;;;;;;5079569;28;20506;-82
2021/04/28 02:12:28;;;;;;;12.07;6.70;;;6.20;99.90;;;;;;5079696;28;20470;-82
2021/04/28 02:14:56;;;;;;;12.60;7.10;;;6.10;99.90;;;;;;5079576;28;20934;-82
2021/04/28 02:17:24;;;;;;;9.93;6.60;;;6.10;99.90;;;;;;5078695;28;20470;-82
2021/04/28 02:19:50;;;;;;;26.80;9.20;;;6.00;99.90;;;;;;5078864;28;20451;-82
2021/04/28 02:22:18;;;;;;;13.10;6.50;;;6.00;99.90;;;;;;5079270;28;20477;-82
2021/04/28 02:24:44;;;;;;;12.60;6.97;;;6.00;99.90;;;;;;5079464;28;20942;-82
2021/04/28 02:27:11;;;;;;;9.60;6.60;;;5.90;99.90;;;;;;5078863;28;20477;-81
2021/04/28 02:29:37;;;;;;;11.60;7.33;;;5.90;99.90;;;;;;5079271;28;20490;-82
2021/04/28 02:32:06;;;;;;;14.70;6.97;;;5.80;99.90;;;;;;5077850;28;20451;-82
2021/04/28 02:34:32;;;;;;;15.83;7.30;;;5.80;99.90;;;;;;5079511;28;21025;-82
2021/04/28 02:37:00;;;;;;;12.00;6.90;;;5.70;99.90;;;;;;5079320;28;20476;-83
2021/04/28 02:39:30;;;;;;;10.23;5.47;;;5.70;99.90;;;;;;5080942;28;20528;-82
2021/04/28 02:41:57;;;;;;;13.43;7.70;;;5.70;99.90;;;;;;5079312;28;20778;-83
2021/04/28 02:44:26;;;;;;;13.27;7.03;;;5.60;99.90;;;;;;5079270;28;20449;-82
2021/04/28 02:46:56;;;;;;;16.13;7.43;;;5.60;99.90;;;;;;5078095;28;20476;-82
2021/04/28 02:49:24;;;;;;;15.27;6.80;;;5.60;99.90;;;;;;5078655;28;20486;-83
2021/04/28 02:51:52;;;;;;;12.73;7.23;;;5.60;99.90;;;;;;5079044;28;20568;-83
2021/04/28 02:54:20;;;;;;;15.43;7.90;;;5.50;99.90;;;;;;5078348;28;20540;-83
2021/04/28 02:56:49;;;;;;;22.13;7.60;;;5.50;99.90;;;;;;5079297;28;21038;-82
2021/04/28 02:59:17;;;;;;;32.47;7.97;;;5.40;99.90;;;;;;5079405;28;20450;-82
2021/04/28 03:01:45;;;;;;;40.33;14.23;;;5.30;99.90;;;;;;5078662;28;20473;-81
2021/04/28 03:04:11;;;;;;;292.63;275.63;;;5.30;99.90;;;;;;5080496;28;20995;-81
2021/04/28 03:06:38;;;;;;;472.57;447.67;;;5.20;99.90;;;;;;5079723;28;21020;-82
2021/04/28 03:09:05;;;;;;;287.40;268.20;;;5.20;99.90;;;;;;5079982;28;20989;-81
2021/04/28 03:11:32;;;;;;;293.13;273.97;;;5.20;99.90;;;;;;5078988;28;20462;-82
2021/04/28 03:13:59;;;;;;;210.27;193.87;;;5.20;99.90;;;;;;5079519;28;20463;-81
2021/04/28 03:16:26;;;;;;;304.90;284.67;;;5.20;99.90;;;;;;5078522;28;20964;-82
2021/04/28 03:18:53;;;;;;;247.23;228.80;;;5.20;99.90;;;;;;5078597;28;20453;-82
2021/04/28 03:21:20;;;;;;;192.00;176.03;;;5.20;99.90;;;;;;5078415;28;20447;-82
2021/04/28 03:23:48;;;;;;;343.67;322.73;;;5.20;99.90;;;;;;5078576;28;20461;-82
2021/04/28 03:26:14;;;;;;;355.77;333.53;;;5.10;99.90;;;;;;5078205;28;20474;-83
2021/04/28 03:28:41;;;;;;;357.60;335.03;;;5.10;99.90;;;;;;5073905;28;20484;-82
2021/04/28 03:31:07;;;;;;;567.47;531.90;;;5.00;99.90;;;;;;5077218;28;20481;-82
2021/04/28 03:33:33;;;;;;;505.97;473.50;;;5.00;99.90;;;;;;5075795;28;20593;-82
2021/04/28 03:36:00;;;;;;;390.97;362.23;;;5.00;99.90;;;;;;5079072;28;20446;-82
2021/04/28 03:38:26;;;;;;;1513.23;834.23;;;5.00;99.90;;;;;;5077527;28;20467;-83
2021/04/28 03:40:53;;;;;;;1439.20;763.80;;;5.00;99.90;;;;;;5078061;28;20516;-82
2021/04/28 03:43:20;;;;;;;1999.90;999.90;;;4.90;99.90;;;;;;5077844;28;20463;-80
2021/04/28 03:45:46;;;;;;;1999.90;999.90;;;4.90;99.90;;;;;;5078893;28;20457;-83
2021/04/28 03:48:12;;;;;;;1999.90;999.90;;;4.80;99.90;;;;;;5076872;28;21007;-81
2021/04/28 03:50:38;;;;;;;1999.90;999.90;;;4.90;99.90;;;;;;5077689;28;20461;-82
2021/04/28 03:53:05;;;;;;;1999.90;999.90;;;4.90;99.90;;;;;;5077884;28;20543;-82
2021/04/28 03:55:31;;;;;;;1999.90;999.90;;;4.80;99.90;;;;;;5076441;28;20886;-82
2021/04/28 03:57:58;;;;;;;1999.90;999.90;;;5.20;99.90;;;;;;5071713;28;20851;-83
2021/04/28 04:00:25;;;;;;;1999.90;999.90;;;4.80;99.90;;;;;;5076606;28;20204;-82
2021/04/28 04:02:51;;;;;;;1999.90;999.90;;;4.90;99.90;;;;;;5079076;28;20427;-82
2021/04/28 04:05:17;;;;;;;1999.90;999.90;;;4.90;99.90;;;;;;5074425;28;20451;-83
2021/04/28 04:07:44;;;;;;;1999.90;999.90;;;4.80;99.90;;;;;;5075550;28;20471;-79
2021/04/28 04:10:11;;;;;;;1999.90;999.90;;;4.80;99.90;;;;;;5076335;28;20837;-80
2021/04/28 04:12:37;;;;;;;1999.90;999.90;;;4.80;99.90;;;;;;5076066;28;20472;-81
2021/04/28 04:15:07;;;;;;;1999.90;999.90;;;4.80;99.90;;;;;;5077383;28;20532;-81
2021/04/28 04:17:33;;;;;;;1999.90;999.90;;;4.80;99.90;;;;;;5076872;28;20524;-80
2021/04/28 04:20:00;;;;;;;1999.90;999.90;;;4.70;99.90;;;;;;5076988;28;20498;-79
2021/04/28 04:22:26;;;;;;;1999.90;999.90;;;4.70;99.90;;;;;;5076833;28;20422;-81
2021/04/28 04:24:52;;;;;;;1999.90;999.90;;;4.70;99.90;;;;;;5078222;28;20421;-80
2021/04/28 04:27:19;;;;;;;1999.90;999.90;;;4.70;99.90;;;;;;5114900;22;20473;-83
2021/04/28 04:29:45;;;;;;;1999.90;999.90;;;4.70;99.90;;;;;;5124276;28;20471;-85
2021/04/28 04:32:12;;;;;;;1999.90;999.90;;;4.70;99.90;;;;;;5123016;28;20451;-84
2021/04/28 04:34:39;;;;;;;1999.90;999.90;;;4.70;99.90;;;;;;5127094;28;20509;-81
2021/04/28 04:37:05;;;;;;;1999.90;999.90;;;4.70;99.90;;;;;;5133342;28;20492;-82
2021/04/28 04:39:32;;;;;;;1999.90;999.90;;;4.70;99.90;;;;;;5116411;28;20454;-80
2021/04/28 04:41:59;;;;;;;1999.90;999.90;;;4.80;99.90;;;;;;5107405;28;20460;-84
2021/04/28 04:44:25;;;;;;;1999.90;999.90;;;4.80;99.90;;;;;;5099138;28;20454;-83
2021/04/28 04:46:52;;;;;;;1999.90;999.90;;;4.80;99.90;;;;;;5098944;28;20428;-85
2021/04/28 04:49:19;;;;;;;1999.90;999.90;;;4.90;99.90;;;;;;5099444;28;20567;-84
2021/04/28 04:51:45;;;;;;;1999.90;999.90;;;5.00;99.90;;;;;;5099916;28;20480;-83
2021/04/28 04:54:12;;;;;;;1999.90;999.90;;;5.00;99.90;;;;;;5104070;28;20524;-83
2021/04/28 04:56:38;;;;;;;1999.90;999.90;;;5.10;99.90;;;;;;5102706;28;20481;-82
2021/04/28 04:59:04;;;;;;;1999.90;999.90;;;5.10;99.90;;;;;;5101857;28;20508;-84
2021/04/28 05:01:31;;;;;;;1999.90;999.90;;;5.20;99.90;;;;;;5102811;28;20431;-83
2021/04/28 05:03:57;;;;;;;1999.90;999.90;;;5.30;99.90;;;;;;5111421;28;20841;-83
2021/04/28 05:06:24;;;;;;;1999.90;999.90;;;5.40;99.90;;;;;;5105346;28;20519;-84
2021/04/28 05:08:51;;;;;;;1999.90;999.90;;;5.50;99.90;;;;;;5108614;28;20909;-84
2021/04/28 05:11:17;;;;;;;1999.90;999.90;;;5.60;99.90;;;;;;5096324;28;20850;-83
2021/04/28 05:13:44;;;;;;;1999.90;999.90;;;5.70;99.90;;;;;;5098395;28;20520;-82
2021/04/28 05:16:10;;;;;;;1999.90;999.90;;;5.80;99.90;;;;;;5097007;28;20457;-83
2021/04/28 05:18:37;;;;;;;1999.90;999.90;;;6.00;99.90;;;;;;5096572;28;21017;-82
2021/04/28 05:21:03;;;;;;;1999.90;999.90;;;6.00;99.90;;;;;;5099890;28;20473;-83
2021/04/28 05:23:30;;;;;;;1999.90;999.90;;;6.20;99.90;;;;;;5094564;28;20454;-84
2021/04/28 05:25:57;;;;;;;1999.90;999.90;;;6.20;99.90;;;;;;5111247;28;20456;-82
2021/04/28 05:28:25;;;;;;;1999.90;999.90;;;6.30;99.90;;;;;;5090562;28;20489;-83
2021/04/28 05:30:52;;;;;;;1999.90;999.90;;;6.40;99.90;;;;;;5075773;28;20439;-83
2021/04/28 05:33:18;;;;;;;1999.90;999.90;;;6.50;99.90;;;;;;5075188;28;20590;-83
2021/04/28 05:35:44;;;;;;;1999.90;999.90;;;6.60;99.90;;;;;;5075521;28;20537;-83
2021/04/28 05:38:11;;;;;;;1999.90;999.90;;;6.70;99.90;;;;;;5079231;28;20473;-83
2021/04/28 05:40:38;;;;;;;1999.90;999.90;;;6.80;99.90;;;;;;5076369;28;20545;-81
2021/04/28 05:43:04;;;;;;;1999.90;999.90;;;6.80;99.90;;;;;;5073146;28;20446;-83
2021/04/28 05:45:41;;;;;;;1999.90;999.90;;;6.90;99.90;;;;;;5072565;28;20489;-81
2021/04/28 05:48:08;;;;;;;1999.90;999.90;;;7.10;99.90;;;;;;5076132;28;20490;-83
2021/04/28 05:50:34;;;;;;;1999.90;999.90;;;7.20;99.90;;;;;;5076147;28;21231;-84
2021/04/28 05:53:01;;;;;;;1999.90;999.90;;;7.30;99.90;;;;;;5073071;28;20441;-84
2021/04/28 05:55:27;;;;;;;1999.90;999.90;;;7.40;99.90;;;;;;5073404;28;20868;-83
2021/04/28 05:57:54;;;;;;;1999.90;999.90;;;7.50;99.90;;;;;;5071654;28;20490;-85
2021/04/28 06:00:22;;;;;;;894.43;536.77;;;7.60;99.90;;;;;;5072643;28;20812;-84
2021/04/28 06:02:48;;;;;;;811.07;753.80;;;7.70;99.90;;;;;;5072055;28;20455;-83
2021/04/28 06:05:14;;;;;;;1063.60;984.13;;;7.80;99.90;;;;;;5075984;28;20451;-83
2021/04/28 06:07:41;;;;;;;837.27;784.77;;;7.90;99.90;;;;;;5075079;28;20470;-84
2021/04/28 06:10:08;;;;;;;742.83;698.30;;;8.00;99.90;;;;;;5073619;28;20532;-83
2021/04/28 06:12:35;;;;;;;695.63;654.70;;;8.10;99.90;;;;;;5074335;28;20457;-84
2021/04/28 06:15:02;;;;;;;787.67;738.97;;;8.20;99.90;;;;;;5075304;28;20550;-83
2021/04/28 06:17:29;;;;;;;708.13;668.00;;;8.30;99.90;;;;;;5072571;28;20471;-83
2021/04/28 06:19:56;;;;;;;720.80;678.20;;;8.40;99.90;;;;;;5074571;28;20467;-84
2021/04/28 06:22:22;;;;;;;614.63;581.77;;;8.50;99.90;;;;;;5074940;28;21009;-85
2021/04/28 06:24:48;;;;;;;466.77;439.13;;;8.60;99.90;;;;;;5075876;28;20470;-85
2021/04/28 06:27:15;;;;;;;72.17;43.67;;;8.70;99.90;;;;;;5081910;28;20575;-83
2021/04/28 06:29:41;;;;;;;61.10;21.87;;;8.90;99.90;;;;;;5116227;28;21032;-84
2021/04/28 06:32:09;;;;;;;62.50;22.63;;;9.00;99.90;;;;;;5104820;27;20539;-83
2021/04/28 06:34:38;;;;;;;57.20;15.37;;;9.00;99.90;;;;;;5111989;28;20964;-82
2021/04/28 06:37:04;;;;;;;53.60;13.90;;;9.20;99.90;;;;;;5115641;28;20449;-84
2021/04/28 06:39:30;;;;;;;40.13;9.50;;;9.20;99.90;;;;;;5118263;28;21013;-84
2021/04/28 06:41:57;;;;;;;40.80;10.10;;;9.30;99.90;;;;;;5115274;28;20457;-84
2021/04/28 06:44:23;;;;;;;32.33;9.10;;;9.40;99.90;;;;;;5109133;28;20460;-84
2021/04/28 06:46:49;;;;;;;25.43;7.90;;;9.50;99.90;;;;;;5110694;28;20953;-83
2021/04/28 06:49:17;;;;;;;17.87;7.07;;;9.70;99.90;;;;;;5114746;27;20481;-83
2021/04/28 06:51:43;;;;;;;20.60;7.50;;;9.80;99.90;;;;;;5114140;28;21002;-84
2021/04/28 06:54:09;;;;;;;19.53;9.37;;;9.90;99.90;;;;;;5114750;28;20589;-82
2021/04/28 06:56:37;;;;;;;17.20;7.60;;;10.10;99.90;;;;;;5122942;27;20432;-84
2021/04/28 06:59:04;;;;;;;19.70;8.33;;;10.20;99.90;;;;;;5119744;27;20495;-84
2021/04/28 07:01:30;;;;;;;15.80;9.00;;;10.30;99.90;;;;;;5117732;27;20449;-84
2021/04/28 07:03:56;;;;;;;13.60;6.47;;;10.50;99.90;;;;;;5123796;27;20555;-83
2021/04/28 07:06:23;;;;;;;13.90;7.90;;;10.70;99.90;;;;;;5122847;27;20440;-84
2021/04/28 07:08:50;;;;;;;15.90;7.87;;;11.00;99.90;;;;;;5118579;27;20516;-84
2021/04/28 07:11:16;;;;;;;20.10;8.03;;;11.40;99.90;;;;;;5113939;27;20941;-85
2021/04/28 07:13:45;;;;;;;14.30;7.60;;;11.80;99.90;;;;;;5121979;27;20467;-84
2021/04/28 07:16:11;;;;;;;14.50;8.67;;;12.50;99.90;;;;;;5124157;27;20536;-84
2021/04/28 07:18:37;;;;;;;14.60;8.47;;;13.70;99.90;;;;;;5109017;27;20457;-84
2021/04/28 07:21:06;;;;;;;13.20;7.63;;;14.30;99.90;;;;;;5117837;27;20445;-81
2021/04/28 07:23:33;;;;;;;12.73;7.30;;;14.80;99.90;;;;;;5124374;27;20810;-86
2021/04/28 07:26:00;;;;;;;15.90;7.70;;;15.00;99.90;;;;;;5127271;27;20590;-83
2021/04/28 07:28:27;;;;;;;11.33;7.27;;;16.10;99.90;;;;;;5112604;27;20634;-83
2021/04/28 07:30:53;;;;;;;15.20;9.43;;;17.60;99.90;;;;;;5115411;27;20458;-83
2021/04/28 07:33:19;;;;;;;15.70;8.30;;;18.10;96.20;;;;;;5121765;27;20472;-86
2021/04/28 07:35:46;;;;;;;12.90;7.90;;;18.70;94.50;;;;;;5117196;28;20842;-86
2021/04/28 07:38:12;;;;;;;11.20;6.57;;;18.30;92.10;;;;;;5114745;28;20574;-85
2021/04/28 07:40:39;;;;;;;14.30;7.03;;;17.80;88.80;;;;;;5114507;28;20457;-84
2021/04/28 07:43:06;;;;;;;15.27;7.70;;;17.70;88.60;;;;;;5111980;28;20457;-85
2021/04/28 07:45:34;;;;;;;11.63;6.73;;;17.50;87.90;;;;;;5114031;28;20510;-86
2021/04/28 07:48:05;;;;;;;18.33;7.90;;;17.70;89.10;;;;;;5113931;28;20465;-83
2021/04/28 07:50:32;;;;;;;14.50;7.50;;;17.80;85.90;;;;;;5114387;28;20445;-86
2021/04/28 07:52:58;;;;;;;13.97;7.37;;;17.80;83.80;;;;;;5113891;28;20441;-87
2021/04/28 07:55:25;;;;;;;13.30;7.23;;;18.70;87.50;;;;;;5113697;28;20445;-85
2021/04/28 07:57:52;;;;;;;11.13;7.13;;;19.00;88.60;;;;;;5114519;28;20453;-85
2021/04/28 08:00:19;;;;;;;15.03;8.30;;;19.60;88.00;;;;;;5115478;28;20449;-87
2021/04/28 08:02:47;;;;;;;11.43;6.40;;;19.80;86.80;;;;;;5114900;28;20448;-85
2021/04/28 08:05:14;;;;;;;11.30;6.50;;;19.80;81.50;;;;;;5113053;28;20971;-85
2021/04/28 08:07:40;;;;;;;12.47;7.70;;;19.60;80.40;;;;;;5115120;28;20464;-86
2021/04/28 08:10:18;;;;;;;14.50;7.40;;;19.60;82.00;;;;;;5110613;28;20489;-86
2021/04/28 08:12:45;;;;;;;12.63;6.77;;;19.70;85.90;;;;;;5112568;28;20521;-86
2021/04/28 08:15:13;;;;;;;10.97;7.10;;;20.70;81.90;;;;;;5114352;28;20453;-86
2021/04/28 08:17:40;;;;;;;12.90;7.80;;;21.80;81.30;;;;;;5112514;28;20465;-87
2021/04/28 08:20:08;;;;;;;9.93;6.97;;;21.90;76.10;;;;;;5110610;28;20441;-86
2021/04/28 08:22:35;;;;;;;17.60;8.03;;;21.40;75.40;;;;;;5118039;28;20426;-85
2021/04/28 08:25:03;;;;;;;13.67;7.83;;;20.80;76.30;;;;;;5118300;28;20447;-85
2021/04/28 08:27:29;;;;;;;10.50;6.57;;;20.30;73.20;;;;;;5123484;27;20563;-87
2021/04/28 08:29:56;;;;;;;14.87;7.83;;;20.30;78.50;;;;;;5138390;27;20494;-87
2021/04/28 08:32:24;;;;;;;12.37;8.00;;;20.40;75.20;;;;;;5139765;27;20977;-85
2021/04/28 08:34:50;;;;;;;13.90;6.87;;;20.30;75.70;;;;;;5132951;27;20959;-85
2021/04/28 08:37:16;;;;;;;12.10;7.40;;;20.30;75.30;;;;;;5121752;28;20561;-87
2021/04/28 08:39:43;;;;;;;11.10;7.40;;;20.60;78.30;;;;;;5120925;27;20447;-85
2021/04/28 08:42:10;;;;;;;13.37;7.00;;;21.40;76.60;;;;;;5130385;27;20448;-85
2021/04/28 08:44:36;;;;;;;14.13;7.27;;;23.10;75.40;;;;;;5141672;27;20501;-85
2021/04/28 08:47:03;;;;;;;12.57;6.90;;;24.00;71.20;;;;;;5141589;27;20433;-85
2021/04/28 08:49:30;;;;;;;12.43;7.20;;;24.40;70.10;;;;;;5148204;27;20496;-84
2021/04/28 08:51:56;;;;;;;11.30;7.60;;;25.00;73.60;;;;;;5146895;27;20433;-82
2021/04/28 08:54:24;;;;;;;11.20;7.00;;;26.10;64.10;;;;;;5130320;27;20451;-86
2021/04/28 08:56:51;;;;;;;10.73;7.67;;;26.80;60.40;;;;;;5131323;27;20472;-84
2021/04/28 08:59:18;;;;;;;12.47;6.83;;;27.50;54.40;;;;;;5116657;28;20445;-86
2021/04/28 09:01:45;;;;;;;13.23;7.90;;;27.50;58.10;;;;;;5119054;27;20449;-85
2021/04/28 09:04:14;;;;;;;11.97;7.27;;;27.60;56.80;;;;;;5122301;27;20478;-86
2021/04/28 09:06:42;;;;;;;11.37;7.30;;;28.50;52.60;;;;;;5134694;27;20441;-85
2021/04/28 09:09:10;;;;;;;10.77;6.77;;;29.40;54.20;;;;;;5148374;27;20479;-83
2021/04/28 09:11:39;;;;;;;10.00;5.90;;;29.20;47.50;;;;;;5144210;27;20452;-83
2021/04/28 09:14:10;;;;;;;13.10;7.40;;;29.20;47.90;;;;;;5141470;27;20477;-86
2021/04/28 09:16:36;;;;;;;11.10;7.10;;;28.50;46.90;;;;;;5124805;27;20516;-86
2021/04/28 09:19:03;;;;;;;9.57;7.07;;;28.90;47.00;;;;;;5128304;27;20887;-85
2021/04/28 09:21:50;;;;;;;10.73;6.00;;;29.00;47.40;;;;;;5137044;27;20816;-86
2021/04/28 09:24:19;;;;;;;8.73;5.47;;;28.50;47.70;;;;;;5116163;28;20532;-86
2021/04/28 09:26:45;;;;;;;7.70;5.07;;;28.70;48.00;;;;;;5117027;28;20440;-84
2021/04/28 09:29:18;;;;;;;9.90;6.87;;;29.50;46.60;;;;;;5116469;28;20485;-85
2021/04/28 09:31:59;;;;;;;10.70;7.30;;;30.00;43.40;;;;;;5116948;28;20439;-86
2021/04/28 09:34:27;;;;;;;11.13;6.03;;;29.80;42.40;;;;;;5116193;27;21014;-86
2021/04/28 09:37:07;;;;;;;10.83;7.60;;;30.80;44.10;;;;;;5122605;27;20450;-86
2021/04/28 09:39:46;;;;;;;8.40;5.63;;;30.40;41.90;;;;;;5120083;27;20476;-84
2021/04/28 09:42:15;;;;;;;10.40;6.20;;;31.60;43.30;;;;;;5116990;27;20460;-86
2021/04/28 09:44:47;;;;;;;11.57;7.27;;;32.20;40.20;;;;;;5115413;28;20501;-84
2021/04/28 09:47:15;;;;;;;11.07;6.43;;;31.50;40.40;;;;;;5094692;28;20478;-86
2021/04/28 09:49:56;;;;;;;9.07;6.10;;;31.70;42.00;;;;;;5094463;28;20481;-86
2021/04/28 09:52:39;;;;;;;9.63;7.20;;;31.40;42.60;;;;;;5112218;28;20487;-85
2021/04/28 09:55:08;;;;;;;9.60;6.90;;;31.70;38.60;;;;;;5113602;28;20453;-87
2021/04/28 09:57:36;;;;;;;9.97;6.57;;;32.10;39.60;;;;;;5106511;28;20999;-86
2021/04/28 10:00:13;;;;;;;10.07;6.97;;;32.60;39.70;;;;;;5109605;28;20988;-85
2021/04/28 10:02:41;;;;;;;8.07;6.00;;;32.70;38.10;;;;;;5112112;28;20821;-86
2021/04/28 10:05:19;;;;;;;11.70;6.67;;;32.20;38.60;;;;;;5106284;28;21017;-87
2021/04/28 10:07:47;;;;;;;9.70;7.13;;;32.80;41.20;;;;;;5107759;28;20474;-86
2021/04/28 10:10:15;;;;;;;9.03;5.97;;;33.20;40.00;;;;;;5109767;28;20565;-84
2021/04/28 10:12:41;;;;;;;10.30;6.40;;;33.60;36.20;;;;;;5112277;28;20525;-86
2021/04/28 10:15:09;;;;;;;12.87;6.93;;;34.20;37.00;;;;;;5115302;28;20497;-85
2021/04/28 10:17:36;;;;;;;9.30;7.17;;;34.60;38.10;;;;;;5115828;28;20504;-85
2021/04/28 10:20:04;;;;;;;9.50;6.90;;;34.30;37.90;;;;;;5115726;28;20525;-88
2021/04/28 10:22:32;;;;;;;7.90;6.73;;;34.80;39.40;;;;;;5115018;28;20453;-88
2021/04/28 10:25:03;;;;;;;9.20;5.90;;;35.40;37.90;;;;;;5115687;28;20896;-85
2021/04/28 10:27:30;;;;;;;8.50;6.73;;;35.80;35.50;;;;;;5139004;22;21033;-83
2021/04/28 10:29:56;;;;;;;8.50;6.50;;;35.20;36.70;;;;;;5097190;28;20478;-84
2021/04/28 10:32:23;;;;;;;10.80;6.00;;;35.00;33.70;;;;;;5099760;28;20456;-82
2021/04/28 10:34:53;;;;;;;8.57;5.40;;;35.10;36.80;;;;;;5099849;28;20446;-85
2021/04/28 10:37:21;;;;;;;9.83;7.37;;;36.40;37.70;;;;;;5100877;28;20938;-84
2021/04/28 10:39:48;;;;;;;9.40;6.00;;;36.80;35.70;;;;;;5077504;28;20443;-82
2021/04/28 10:42:33;;;;;;;8.67;6.77;;;37.50;33.60;;;;;;5079017;28;20550;-83
2021/04/28 10:45:00;;;;;;;9.50;7.60;;;36.10;34.30;;;;;;5079406;28;20466;-80
2021/04/28 10:47:29;;;;;;;7.30;5.93;;;35.40;32.40;;;;;;5086451;28;20491;-83
2021/04/28 10:50:00;;;;;;;15.00;6.00;;;35.20;36.50;;;;;;5092606;28;20503;-86
2021/04/28 10:52:27;;;;;;;9.93;7.37;;;35.00;36.40;;;;;;5077018;28;20480;-82
2021/04/28 10:54:54;;;;;;;9.83;6.50;;;35.30;34.20;;;;;;5078038;28;20440;-84
2021/04/28 10:57:37;;;;;;;8.80;6.90;;;35.20;34.40;;;;;;5079560;28;20529;-84
2021/04/28 11:00:25;;;;;;;7.53;6.20;;;36.40;32.50;;;;;;5078613;28;20448;-83
2021/04/28 11:02:52;;;;;;;10.80;7.50;;;35.70;36.30;;;;;;5069142;28;20490;-84
2021/04/28 11:05:24;;;;;;;12.63;6.90;;;35.40;35.20;;;;;;5077686;28;20471;-85
2021/04/28 11:07:56;;;;;;;7.47;5.20;;;37.00;32.40;;;;;;5077571;28;20465;-84
2021/04/28 11:10:30;;;;;;;9.83;7.43;;;38.10;36.40;;;;;;5078252;28;20486;-84
2021/04/28 11:13:06;;;;;;;9.13;7.53;;;38.50;34.30;;;;;;5078463;28;20454;-83
2021/04/28 11:15:47;;;;;;;10.50;6.57;;;38.60;34.70;;;;;;5078770;28;20602;-83
2021/04/28 11:18:27;;;;;;;8.27;6.80;;;37.90;31.20;;;;;;5078664;28;20498;-84
2021/04/28 11:21:27;;;;;;;8.60;7.13;;;36.30;30.80;;;;;;5076877;28;20470;-83
2021/04/28 11:24:09;;;;;;;10.37;7.40;;;37.30;32.50;;;;;;5079799;28;20962;-83
2021/04/28 11:26:36;;;;;;;7.93;6.50;;;38.40;31.80;;;;;;5081572;28;20462;-82
2021/04/28 11:29:05;;;;;;;9.10;7.43;;;37.70;33.00;;;;;;5081742;28;20931;-84
2021/04/28 11:31:43;;;;;;;8.30;6.20;;;36.70;29.70;;;;;;5076616;28;20986;-85
2021/04/28 11:34:32;;;;;;;12.03;7.30;;;38.00;31.00;;;;;;5077998;28;20986;-79
2021/04/28 11:37:02;;;;;;;10.20;8.00;;;38.80;31.70;;;;;;5078693;28;20432;-83
2021/04/28 11:39:37;;;;;;;12.83;7.80;;;36.60;29.90;;;;;;5078547;28;20461;-78
2021/04/28 11:42:08;;;;;;;7.97;5.63;;;36.00;29.10;;;;;;5059386;28;20458;-82
2021/04/28 11:44:38;;;;;;;9.10;6.87;;;37.80;32.50;;;;;;5077841;28;20455;-82
2021/04/28 11:47:13;;;;;;;7.40;5.50;;;38.20;32.20;;;;;;5077522;28;20455;-82
2021/04/28 11:49:40;;;;;;;9.00;7.60;;;38.80;30.60;;;;;;5059579;28;20486;-83
2021/04/28 11:52:08;;;;;;;8.00;6.60;;;39.80;29.70;;;;;;5078596;28;20454;-84
2021/04/28 11:54:34;;;;;;;9.40;7.00;;;39.90;30.00;;;;;;5079490;28;20546;-83
2021/04/28 11:57:02;;;;;;;9.53;7.10;;;38.80;30.80;;;;;;5078496;28;20478;-81
2021/04/28 11:59:30;;;;;;;10.03;7.30;;;37.70;29.00;;;;;;5078441;28;20555;-84
2021/04/28 12:01:58;;;;;;;9.33;7.80;;;37.60;32.50;;;;;;5078931;28;20508;-84
2021/04/28 12:04:29;;;;;;;11.40;7.00;;;37.70;31.60;;;;;;5084301;28;20458;-81
2021/04/28 12:06:56;;;;;;;12.60;6.73;;;37.70;32.20;;;;;;5082454;28;20478;-84
2021/04/28 12:09:38;;;;;;;9.00;7.67;;;39.60;30.20;;;;;;5071629;28;20478;-80
2021/04/28 12:12:10;;;;;;;9.40;6.83;;;39.90;28.80;;;;;;5079501;28;20450;-84
2021/04/28 12:14:37;;;;;;;10.90;7.50;;;39.90;29.10;;;;;;5082095;28;20477;-83
2021/04/28 12:17:05;;;;;;;8.87;6.70;;;40.60;29.10;;;;;;5082665;28;20510;-82
2021/04/28 12:19:31;;;;;;;9.80;7.23;;;39.70;29.10;;;;;;5090390;28;20493;-84
2021/04/28 12:22:01;;;;;;;10.90;6.87;;;38.60;29.30;;;;;;5079903;28;20918;-83
2021/04/28 12:24:30;;;;;;;7.97;6.37;;;39.30;29.30;;;;;;5081080;28;20458;-84
2021/04/28 12:27:08;;;;;;;9.87;6.87;;;39.50;29.90;;;;;;5081677;28;20546;-82
2021/04/28 12:29:36;;;;;;;14.60;7.90;;;40.10;30.50;;;;;;5090860;28;21008;-82
2021/04/28 12:32:04;;;;;;;8.27;6.37;;;40.70;29.70;;;;;;5069946;28;20555;-83
2021/04/28 12:34:30;;;;;;;8.50;6.23;;;40.60;30.10;;;;;;5082581;28;20439;-83
2021/04/28 12:37:08;;;;;;;10.20;5.50;;;40.50;28.30;;;;;;5082300;28;20985;-83
2021/04/28 12:39:34;;;;;;;8.10;6.17;;;40.80;30.30;;;;;;5082349;28;20570;-83